createdAt,value
2023-04-11T00:00:27.279Z,23.90
2023-04-11T00:03:00.002Z,21.93
2023-04-11T00:05:31.362Z,25.47
2023-04-11T00:07:59.711Z,21.67
2023-04-11T00:10:28.063Z,22.50
2023-04-11T00:12:56.880Z,22.33
2023-04-11T00:15:26.974Z,20.37
2023-04-11T00:17:55.960Z,20.47
2023-04-11T00:20:24.258Z,18.50
2023-04-11T00:22:54.117Z,18.93
2023-04-11T00:25:22.552Z,17.33
2023-04-11T00:27:50.890Z,18.70
2023-04-11T00:30:19.256Z,18.10
2023-04-11T00:32:49.735Z,16.10
2023-04-11T00:35:18.210Z,19.00
2023-04-11T00:37:47.099Z,19.87
2023-04-11T00:40:17.834Z,20.13
2023-04-11T00:42:46.216Z,21.07
2023-04-11T00:45:14.653Z,17.43
2023-04-11T00:47:43.229Z,17.17
2023-04-11T00:50:15.968Z,17.43
2023-04-11T00:52:46.384Z,18.60
2023-04-11T00:55:15.301Z,16.90
2023-04-11T00:57:44.192Z,20.70
2023-04-11T01:00:14.167Z,18.17
2023-04-11T01:02:45.234Z,23.07
2023-04-11T01:05:16.578Z,18.57
2023-04-11T01:07:48.063Z,18.70
2023-04-11T01:10:17.516Z,21.23
2023-04-11T01:12:47.337Z,25.83
2023-04-11T01:15:15.882Z,16.87
2023-04-11T01:17:45.650Z,17.20
2023-04-11T01:20:16.091Z,18.93
2023-04-11T01:22:45.062Z,20.47
2023-04-11T01:25:16.847Z,15.93
2023-04-11T01:27:49.450Z,19.93
2023-04-11T01:30:17.730Z,19.23
2023-04-11T01:32:46.204Z,17.57
2023-04-11T01:35:14.698Z,16.87
2023-04-11T01:37:43.120Z,15.93
2023-04-11T01:40:11.845Z,16.33
2023-04-11T01:42:41.620Z,16.83
2023-04-11T01:45:13.131Z,17.93
2023-04-11T01:47:41.658Z,14.83
2023-04-11T01:50:12.151Z,17.67
2023-04-11T01:52:40.496Z,16.20
2023-04-11T01:55:09.576Z,15.77
2023-04-11T01:57:37.836Z,17.37
2023-04-11T02:00:11.060Z,15.43
2023-04-11T02:02:39.825Z,18.20
2023-04-11T02:05:08.730Z,15.43
2023-04-11T02:07:37.631Z,19.73
2023-04-11T02:10:07.345Z,19.10
2023-04-11T02:12:35.678Z,19.07
2023-04-11T02:15:04.050Z,20.50
2023-04-11T02:17:33.769Z,19.33
2023-04-11T02:20:02.388Z,15.60
2023-04-11T02:22:30.686Z,16.63
2023-04-11T02:24:58.952Z,18.77
2023-04-11T02:27:27.304Z,16.93
2023-04-11T02:29:55.592Z,14.93
2023-04-11T02:32:23.915Z,16.13
2023-04-11T02:34:53.710Z,15.03
2023-04-11T02:37:22.015Z,15.63
2023-04-11T02:39:50.337Z,17.93
2023-04-11T02:42:18.810Z,14.87
2023-04-11T02:44:47.097Z,12.70
2023-04-11T02:47:15.620Z,16.17
2023-04-11T02:49:44.095Z,15.13
2023-04-11T02:52:13.822Z,16.37
2023-04-11T02:54:42.095Z,14.07
2023-04-11T02:57:10.368Z,16.10
2023-04-11T02:59:38.738Z,12.37
2023-04-11T03:02:07.166Z,11.60
2023-04-11T03:04:35.496Z,13.03
2023-04-11T03:07:03.873Z,14.97
2023-04-11T03:09:33.647Z,12.87
2023-04-11T03:12:02.340Z,14.70
2023-04-11T03:14:30.710Z,10.10
2023-04-11T03:16:59.000Z,11.30
2023-04-11T03:19:27.397Z,13.90
2023-04-11T03:21:55.675Z,13.90
2023-04-11T03:24:24.005Z,12.87
2023-04-11T03:26:53.712Z,13.13
2023-04-11T03:29:22.008Z,15.50
2023-04-11T03:31:50.526Z,11.40
2023-04-11T03:34:19.220Z,11.60
2023-04-11T03:36:47.488Z,13.40
2023-04-11T03:39:15.851Z,17.30
2023-04-11T03:41:44.180Z,12.83
2023-04-11T03:44:13.895Z,14.93
2023-04-11T03:46:42.410Z,14.07
2023-04-11T03:49:10.840Z,11.40
2023-04-11T03:51:39.232Z,15.20
2023-04-11T03:54:07.558Z,11.37
2023-04-11T03:56:35.958Z,17.30
2023-04-11T03:59:04.416Z,11.43
2023-04-11T04:01:38.194Z,10.90
2023-04-11T04:04:07.692Z,14.40
2023-04-11T04:06:36.146Z,10.50
2023-04-11T04:09:05.219Z,10.93
2023-04-11T04:11:33.681Z,13.13
2023-04-11T04:14:02.324Z,10.60
2023-04-11T04:16:30.702Z,12.33
2023-04-11T04:19:02.619Z,10.73
2023-04-11T04:21:33.008Z,12.03
2023-04-11T04:24:03.811Z,13.17
2023-04-11T04:26:32.551Z,10.23
2023-04-11T04:29:04.699Z,13.27
2023-04-11T04:31:35.050Z,9.53
2023-04-11T04:34:08.837Z,12.53
2023-04-11T04:36:46.461Z,10.93
2023-04-11T04:39:18.059Z,9.50
2023-04-11T04:41:48.714Z,12.10
2023-04-11T04:44:17.488Z,12.97
2023-04-11T04:46:46.168Z,11.47
2023-04-11T04:49:15.856Z,12.40
2023-04-11T04:51:44.180Z,10.77
2023-04-11T04:54:12.480Z,10.80
2023-04-11T04:56:42.736Z,14.33
2023-04-11T04:59:14.717Z,11.97
2023-04-11T05:01:43.185Z,11.63
2023-04-11T05:04:11.770Z,10.73
2023-04-11T05:06:41.723Z,13.90
2023-04-11T05:09:10.064Z,13.90
2023-04-11T05:11:38.474Z,15.30
2023-04-11T05:14:06.841Z,11.93
2023-04-11T05:16:35.454Z,12.10
2023-04-11T05:19:03.724Z,13.60
2023-04-11T05:21:32.122Z,10.53
2023-04-11T05:24:01.847Z,15.50
2023-04-11T05:26:30.175Z,12.63
2023-04-11T05:28:58.441Z,10.47
2023-04-11T05:31:26.998Z,13.53
2023-04-11T05:33:55.787Z,14.83
2023-04-11T05:36:24.370Z,12.50
2023-04-11T05:38:52.630Z,10.80
2023-04-11T05:41:22.363Z,8.93
2023-04-11T05:43:50.897Z,9.47
2023-04-11T05:46:19.372Z,12.13
2023-04-11T05:48:47.652Z,9.03
2023-04-11T05:51:16.127Z,10.10
2023-04-11T05:53:44.984Z,9.97
2023-04-11T05:56:13.283Z,8.90
2023-04-11T05:58:44.655Z,13.73
2023-04-11T06:01:18.666Z,8.57
2023-04-11T06:03:47.676Z,7.67
2023-04-11T06:06:16.236Z,11.20
2023-04-11T06:08:44.700Z,13.93
2023-04-11T06:11:12.970Z,17.07
2023-04-11T06:13:42.750Z,17.73
2023-04-11T06:16:11.532Z,19.97
2023-04-11T06:18:39.949Z,17.83
2023-04-11T06:21:08.369Z,14.53
2023-04-11T06:23:36.659Z,10.47
2023-04-11T06:26:05.112Z,10.77
2023-04-11T06:28:33.394Z,11.80
2023-04-11T06:31:03.410Z,13.90
2023-04-11T06:33:31.822Z,22.10
2023-04-11T06:36:00.250Z,8.53
2023-04-11T06:38:28.621Z,9.00
2023-04-11T06:40:57.401Z,9.73
2023-04-11T06:43:25.793Z,8.60
2023-04-11T06:45:54.103Z,7.90
2023-04-11T06:48:33.032Z,10.50
2023-04-11T06:51:01.396Z,10.20
2023-04-11T06:53:29.775Z,10.00
2023-04-11T06:55:59.860Z,12.93
2023-04-11T06:58:28.200Z,8.17
2023-04-11T07:00:56.558Z,10.37
2023-04-11T07:03:26.683Z,14.33
2023-04-11T07:05:55.189Z,10.47
2023-04-11T07:08:23.594Z,18.33
2023-04-11T07:10:51.929Z,10.27
2023-04-11T07:13:21.314Z,7.77
2023-04-11T07:15:49.723Z,8.83
2023-04-11T07:18:18.357Z,8.67
2023-04-11T07:20:48.722Z,10.90
2023-04-11T07:23:17.069Z,10.73
2023-04-11T07:25:45.569Z,9.80
2023-04-11T07:28:13.931Z,8.10
2023-04-11T07:30:42.771Z,9.47
2023-04-11T07:33:11.117Z,8.83
2023-04-11T07:35:39.445Z,9.43
2023-04-11T07:38:10.253Z,8.17
2023-04-11T07:40:38.593Z,10.47
2023-04-11T07:43:06.936Z,9.67
2023-04-11T07:45:36.549Z,7.53
2023-04-11T07:48:05.032Z,5.77
2023-04-11T07:50:33.395Z,6.20
2023-04-11T07:53:02.341Z,10.30
2023-04-11T07:55:32.058Z,10.40
2023-04-11T07:58:00.357Z,6.90
2023-04-11T08:00:28.920Z,8.30
2023-04-11T08:02:59.582Z,10.10
2023-04-11T08:05:28.112Z,9.67
2023-04-11T08:08:30.480Z,5.93
2023-04-11T08:11:00.205Z,8.93
2023-04-11T08:13:28.759Z,8.67
2023-04-11T08:15:57.145Z,6.20
2023-04-11T08:18:25.643Z,5.77
2023-04-11T08:20:54.001Z,5.73
2023-04-11T08:23:22.903Z,5.93
2023-04-11T08:25:51.221Z,7.13
2023-04-11T08:28:21.042Z,7.50
2023-04-11T08:30:53.131Z,4.67
2023-04-11T08:33:36.718Z,5.10
2023-04-11T08:36:05.348Z,4.03
2023-04-11T08:38:33.973Z,6.83
2023-04-11T08:41:02.287Z,5.57
2023-04-11T08:43:35.091Z,6.23
2023-04-11T08:46:04.109Z,5.77
2023-04-11T08:48:33.071Z,5.27
2023-04-11T08:51:01.578Z,4.33
2023-04-11T08:53:31.579Z,6.73
2023-04-11T08:56:00.327Z,7.83
2023-04-11T08:58:33.189Z,7.23
2023-04-11T09:01:34.584Z,6.70
2023-04-11T09:04:05.724Z,6.83
2023-04-11T09:06:42.177Z,8.07
2023-04-11T09:09:29.956Z,7.23
2023-04-11T09:11:58.947Z,6.80
2023-04-11T09:14:28.682Z,7.17
2023-04-11T09:16:59.017Z,5.40
2023-04-11T09:19:28.378Z,5.23
2023-04-11T09:22:00.532Z,5.37
2023-04-11T09:24:29.735Z,7.80
2023-04-11T09:27:12.796Z,5.50
2023-04-11T09:29:45.307Z,5.17
2023-04-11T09:32:30.271Z,5.40
2023-04-11T09:35:15.810Z,9.57
2023-04-11T09:37:46.945Z,6.00
2023-04-11T09:40:16.561Z,4.22
2023-04-11T09:42:45.232Z,5.13
2023-04-11T09:45:22.589Z,7.10
2023-04-11T09:47:52.908Z,6.73
2023-04-11T09:50:21.594Z,5.33
2023-04-11T09:52:50.156Z,6.10
2023-04-11T09:55:21.582Z,4.37
2023-04-11T09:57:51.777Z,5.93
2023-04-11T10:00:23.339Z,5.60
2023-04-11T10:02:54.053Z,3.87
2023-04-11T10:05:27.680Z,4.37
2023-04-11T10:08:03.800Z,5.93
2023-04-11T10:10:32.392Z,4.87
2023-04-11T10:13:00.930Z,4.57
2023-04-11T10:15:30.891Z,4.40
2023-04-11T10:18:12.590Z,6.33
2023-04-11T10:20:46.429Z,4.40
2023-04-11T10:23:16.634Z,9.53
2023-04-11T10:25:53.273Z,7.47
2023-04-11T10:28:36.964Z,7.47
2023-04-11T10:31:09.146Z,5.33
2023-04-11T10:33:38.828Z,4.80
2023-04-11T10:36:10.353Z,5.27
2023-04-11T10:38:54.291Z,9.60
2023-04-11T10:41:51.376Z,7.50
2023-04-11T10:44:28.000Z,5.70
2023-04-11T10:47:04.206Z,8.63
2023-04-11T10:49:47.312Z,8.10
2023-04-11T10:52:24.825Z,7.00
2023-04-11T10:54:54.183Z,7.57
2023-04-11T10:57:23.350Z,7.97
2023-04-11T11:00:02.133Z,6.03
2023-04-11T11:02:42.333Z,6.13
2023-04-11T11:05:21.946Z,4.47
2023-04-11T11:07:51.862Z,4.87
2023-04-11T11:10:39.812Z,6.93
2023-04-11T11:13:08.257Z,4.17
2023-04-11T11:15:38.557Z,5.50
2023-04-11T11:18:10.671Z,4.43
2023-04-11T11:20:39.130Z,6.07
2023-04-11T11:23:09.033Z,4.43
2023-04-11T11:25:38.123Z,6.87
2023-04-11T11:28:08.327Z,6.97
2023-04-11T11:30:37.805Z,5.17
2023-04-11T11:33:21.099Z,8.13
2023-04-11T11:35:54.553Z,7.13
2023-04-11T11:38:26.109Z,6.30
2023-04-11T11:40:55.545Z,6.37
2023-04-11T11:43:24.215Z,7.50
2023-04-11T11:46:11.067Z,6.00
2023-04-11T11:48:41.811Z,5.53
2023-04-11T11:51:12.623Z,5.67
2023-04-11T11:53:41.019Z,9.00
2023-04-11T11:56:16.377Z,6.40
2023-04-11T11:58:45.910Z,6.93
2023-04-11T12:01:17.215Z,5.37
2023-04-11T12:03:51.661Z,5.67
2023-04-11T12:06:20.630Z,8.53
2023-04-11T12:08:54.035Z,8.07
2023-04-11T12:11:22.808Z,7.30
2023-04-11T12:13:54.836Z,7.33
2023-04-11T12:16:24.496Z,6.37
2023-04-11T12:18:54.613Z,6.03
2023-04-11T12:21:23.011Z,6.87
2023-04-11T12:23:51.329Z,5.30
2023-04-11T12:26:21.305Z,7.47
2023-04-11T12:28:50.263Z,6.30
2023-04-11T12:31:20.249Z,6.57
2023-04-11T12:33:48.670Z,5.93
2023-04-11T12:36:18.446Z,6.43
2023-04-11T12:38:46.757Z,9.20
2023-04-11T12:41:31.697Z,5.50
2023-04-11T12:44:02.250Z,8.13
2023-04-11T12:46:30.760Z,4.63
2023-04-11T12:48:59.159Z,5.93
2023-04-11T12:51:28.869Z,6.33
2023-04-11T12:53:57.215Z,6.73
2023-04-11T12:56:27.002Z,4.97
2023-04-11T12:58:55.507Z,4.60
2023-04-11T13:01:24.416Z,6.50
2023-04-11T13:03:52.965Z,6.67
2023-04-11T13:06:21.338Z,7.20
2023-04-11T13:08:51.114Z,6.40
2023-04-11T13:11:19.432Z,7.03
2023-04-11T13:13:48.458Z,5.70
2023-04-11T13:16:17.172Z,6.40
2023-04-11T13:18:45.768Z,6.73
2023-04-11T13:21:14.127Z,4.97
2023-04-11T13:23:42.562Z,9.40
2023-04-11T13:26:12.407Z,5.67
2023-04-11T13:28:40.809Z,6.80
2023-04-11T13:31:10.535Z,6.80
2023-04-11T13:33:40.590Z,9.33
2023-04-11T13:36:10.158Z,5.83
2023-04-11T13:38:45.012Z,5.87
2023-04-11T13:41:15.031Z,6.83
2023-04-11T13:43:43.601Z,6.43
2023-04-11T13:46:12.517Z,7.60
2023-04-11T13:48:40.817Z,5.10
2023-04-11T13:51:09.728Z,6.53
2023-04-11T13:53:38.132Z,5.83
2023-04-11T13:56:07.915Z,4.90
2023-04-11T13:58:38.425Z,7.70
2023-04-11T14:01:07.456Z,8.77
2023-04-11T14:03:35.834Z,5.87
2023-04-11T14:06:04.801Z,7.17
2023-04-11T14:08:33.929Z,5.50
2023-04-11T14:11:02.211Z,7.13
2023-04-11T14:13:30.654Z,7.97
2023-04-11T14:16:08.072Z,7.87
2023-04-11T14:19:46.486Z,6.33
2023-04-11T14:22:38.271Z,6.03
2023-04-11T14:25:09.960Z,7.83
2023-04-11T14:27:38.418Z,6.57
2023-04-11T14:30:07.840Z,6.27
2023-04-11T14:32:37.956Z,6.20
2023-04-11T14:35:08.385Z,6.83
2023-04-11T14:37:39.730Z,5.97
2023-04-11T14:40:11.131Z,5.67
2023-04-11T14:42:39.711Z,5.07
2023-04-11T14:45:10.708Z,5.73
2023-04-11T14:47:40.787Z,5.63
2023-04-11T14:50:10.010Z,5.37
2023-04-11T14:52:39.124Z,6.40
2023-04-11T14:55:08.772Z,6.03
2023-04-11T14:57:50.277Z,8.43
2023-04-11T15:00:20.330Z,10.47
2023-04-11T15:02:53.116Z,8.90
2023-04-11T15:05:22.714Z,8.07
2023-04-11T15:07:53.278Z,7.80
2023-04-11T15:10:23.606Z,8.33
2023-04-11T15:12:51.944Z,20.87
2023-04-11T15:15:20.514Z,7.67
2023-04-11T15:18:11.224Z,10.73
2023-04-11T15:20:39.795Z,9.03
2023-04-11T15:23:08.172Z,8.13
2023-04-11T15:25:36.602Z,8.00
2023-04-11T15:28:05.052Z,8.33
2023-04-11T15:30:33.335Z,6.60
2023-04-11T15:33:03.296Z,7.00
2023-04-11T15:35:31.679Z,7.63
2023-04-11T15:38:00.578Z,9.13
2023-04-11T15:40:28.941Z,10.63
2023-04-11T15:42:57.291Z,7.43
2023-04-11T15:45:25.615Z,10.53
2023-04-11T15:47:54.000Z,9.43
2023-04-11T15:50:23.887Z,9.23
2023-04-11T15:52:52.230Z,7.90
2023-04-11T15:55:21.312Z,5.97
2023-04-11T15:57:50.229Z,7.33
2023-04-11T16:00:19.804Z,5.90
2023-04-11T16:02:48.645Z,8.17
2023-04-11T16:05:17.580Z,10.13
2023-04-11T16:07:47.704Z,10.13
2023-04-11T16:10:18.399Z,12.70
2023-04-11T16:12:47.603Z,9.70
2023-04-11T16:15:16.000Z,10.93
2023-04-11T16:17:46.524Z,10.80
2023-04-11T16:20:18.783Z,10.03
2023-04-11T16:22:49.093Z,10.90
2023-04-11T16:25:20.856Z,12.93
2023-04-11T16:27:49.550Z,9.93
2023-04-11T16:30:17.976Z,11.90
2023-04-11T16:32:46.446Z,10.60
2023-04-11T16:35:14.928Z,10.37
2023-04-11T16:37:43.316Z,11.30
2023-04-11T16:40:13.171Z,12.37
2023-04-11T16:42:41.761Z,10.47
2023-04-11T16:45:10.997Z,8.93
2023-04-11T16:47:39.662Z,8.73
2023-04-11T16:50:08.948Z,9.87
2023-04-11T16:52:37.449Z,11.97
2023-04-11T16:55:06.896Z,15.53
2023-04-11T16:57:45.539Z,17.63
2023-04-11T17:00:17.046Z,22.80
2023-04-11T17:02:45.505Z,20.80
2023-04-11T17:05:14.447Z,17.10
2023-04-11T17:07:43.836Z,19.33
2023-04-11T17:10:12.928Z,11.87
2023-04-11T17:12:43.099Z,11.33
2023-04-11T17:15:12.252Z,10.33
2023-04-11T17:17:40.891Z,10.50
2023-04-11T17:20:12.220Z,11.40
2023-04-11T17:22:43.263Z,11.67
2023-04-11T17:25:12.192Z,12.20
2023-04-11T17:27:42.674Z,9.10
2023-04-11T17:30:12.393Z,11.83
2023-04-11T17:32:41.053Z,10.77
2023-04-11T17:35:10.104Z,12.23
2023-04-11T17:37:39.735Z,13.87
2023-04-11T17:40:15.668Z,12.73
2023-04-11T17:42:46.003Z,17.10
2023-04-11T17:45:18.115Z,12.90
2023-04-11T17:47:47.651Z,16.23
2023-04-11T17:50:17.081Z,12.50
2023-04-11T17:52:46.739Z,13.07
2023-04-11T17:55:16.851Z,14.93
2023-04-11T17:57:49.042Z,13.93
2023-04-11T18:00:22.824Z,10.53
2023-04-11T18:02:53.178Z,10.93
2023-04-11T18:05:25.612Z,12.63
2023-04-11T18:07:56.591Z,14.93
2023-04-11T18:10:27.182Z,11.40
2023-04-11T18:12:58.700Z,11.10
2023-04-11T18:15:27.989Z,12.00
2023-04-11T18:17:56.453Z,12.37
2023-04-11T18:20:24.938Z,13.33
2023-04-11T18:22:54.903Z,9.73
2023-04-11T18:25:23.860Z,9.37
2023-04-11T18:27:52.317Z,11.30
2023-04-11T18:30:22.109Z,10.40
2023-04-11T18:33:05.864Z,12.47
2023-04-11T18:35:35.397Z,11.43
2023-04-11T18:38:06.431Z,10.00
2023-04-11T18:40:35.432Z,12.27
2023-04-11T18:43:04.316Z,10.33
2023-04-11T18:45:34.347Z,8.50
2023-04-11T18:48:03.164Z,12.23
2023-04-11T18:50:31.848Z,8.87
2023-04-11T18:53:05.189Z,13.83
2023-04-11T18:55:35.324Z,12.20
2023-04-11T18:58:09.132Z,9.90
2023-04-11T19:00:40.080Z,8.10
2023-04-11T19:03:19.147Z,12.27
2023-04-11T19:05:48.340Z,8.53
2023-04-11T19:08:16.876Z,11.30
2023-04-11T19:10:45.680Z,9.50
2023-04-11T19:13:14.043Z,10.47
2023-04-11T19:15:43.760Z,11.57
2023-04-11T19:18:14.493Z,6.60
2023-04-11T19:20:43.118Z,10.23
2023-04-11T19:23:11.547Z,10.70
2023-04-11T19:25:40.089Z,8.10
2023-04-11T19:28:08.688Z,9.07
2023-04-11T19:30:37.257Z,7.67
2023-04-11T19:33:07.249Z,9.97
2023-04-11T19:35:35.898Z,10.33
2023-04-11T19:38:05.939Z,11.50
2023-04-11T19:40:35.227Z,15.30
2023-04-11T19:43:03.641Z,15.70
2023-04-11T19:45:32.728Z,13.77
2023-04-11T19:48:02.857Z,14.57
2023-04-11T19:50:35.942Z,14.30
2023-04-11T19:53:06.075Z,14.07
2023-04-11T19:55:34.499Z,12.17
2023-04-11T19:58:02.902Z,14.07
2023-04-11T20:00:36.141Z,13.50
2023-04-11T20:03:05.994Z,13.73
2023-04-11T20:05:36.165Z,19.53
2023-04-11T20:08:04.665Z,12.53
2023-04-11T20:10:34.262Z,12.27
2023-04-11T20:13:02.557Z,12.23
2023-04-11T20:15:31.184Z,11.83
2023-04-11T20:17:59.561Z,11.87
2023-04-11T20:20:29.455Z,12.23
2023-04-11T20:22:59.161Z,9.93
2023-04-11T20:25:27.460Z,14.20
2023-04-11T20:27:55.757Z,14.50
2023-04-11T20:30:24.165Z,9.70
2023-04-11T20:32:54.102Z,10.20
2023-04-11T20:35:22.549Z,10.50
2023-04-11T20:37:51.008Z,10.20
2023-04-11T20:40:20.749Z,9.20
2023-04-11T20:42:49.612Z,12.23
2023-04-11T20:45:20.770Z,11.73
2023-04-11T20:47:49.762Z,8.20
2023-04-11T20:50:19.410Z,9.40
2023-04-11T20:52:50.705Z,9.00
2023-04-11T20:55:20.994Z,9.37
2023-04-11T20:57:49.467Z,10.87
2023-04-11T21:00:18.890Z,10.80
2023-04-11T21:02:50.401Z,8.20
2023-04-11T21:05:21.297Z,8.13
2023-04-11T21:07:50.173Z,11.20
2023-04-11T21:10:20.986Z,8.07
2023-04-11T21:12:54.142Z,11.70
2023-04-11T21:15:23.019Z,11.43
2023-04-11T21:18:01.587Z,10.37
2023-04-11T21:20:30.048Z,10.47
2023-04-11T21:22:58.980Z,7.27
2023-04-11T21:25:27.436Z,8.80
2023-04-11T21:27:57.139Z,8.83
2023-04-11T21:30:25.452Z,8.67
2023-04-11T21:32:53.840Z,9.60
2023-04-11T21:35:22.219Z,8.23
2023-04-11T21:37:50.738Z,9.13
2023-04-11T21:40:19.080Z,9.27
2023-04-11T21:42:47.506Z,8.07
2023-04-11T21:45:17.349Z,9.63
2023-04-11T21:47:46.737Z,8.90
2023-04-11T21:50:15.212Z,8.27
2023-04-11T21:52:44.591Z,9.03
2023-04-11T21:55:13.187Z,9.30
2023-04-11T21:57:41.805Z,7.97
2023-04-11T22:00:11.913Z,8.10
2023-04-11T22:02:42.297Z,10.67
2023-04-11T22:05:12.570Z,10.97
2023-04-11T22:07:50.201Z,10.40
2023-04-11T22:10:22.737Z,13.50
2023-04-11T22:12:53.840Z,9.30
2023-04-11T22:15:24.198Z,8.57
2023-04-11T22:17:54.727Z,9.43
2023-04-11T22:20:23.214Z,8.53
2023-04-11T22:22:51.532Z,9.57
2023-04-11T22:25:22.379Z,8.70
2023-04-11T22:27:54.913Z,8.47
2023-04-11T22:30:24.378Z,8.27
2023-04-11T22:32:55.673Z,10.43
2023-04-11T22:35:24.979Z,10.33
2023-04-11T22:37:55.423Z,7.80
2023-04-11T22:40:24.020Z,6.13
2023-04-11T22:42:53.295Z,7.50
2023-04-11T22:45:22.774Z,6.97
2023-04-11T22:47:54.344Z,7.93
2023-04-11T22:50:24.385Z,7.57
2023-04-11T22:52:54.785Z,8.30
2023-04-11T22:55:24.832Z,7.83
2023-04-11T22:57:53.222Z,9.37
2023-04-11T23:00:23.940Z,10.03
2023-04-11T23:02:52.457Z,9.13
2023-04-11T23:05:20.894Z,9.00
2023-04-11T23:07:51.208Z,13.37
2023-04-11T23:10:19.662Z,9.40
2023-04-11T23:12:49.380Z,10.97
2023-04-11T23:15:19.378Z,9.40
2023-04-11T23:17:47.702Z,10.27
2023-04-11T23:20:17.589Z,11.77
2023-04-11T23:22:46.497Z,7.83
2023-04-11T23:25:17.009Z,8.07
2023-04-11T23:27:46.401Z,7.30
2023-04-11T23:30:17.552Z,8.60
2023-04-11T23:32:46.039Z,10.07
2023-04-11T23:35:16.956Z,7.53
2023-04-11T23:37:45.955Z,7.37
2023-04-11T23:40:16.068Z,7.37
2023-04-11T23:42:47.398Z,6.23
2023-04-11T23:45:20.452Z,7.03
2023-04-11T23:47:48.756Z,6.40
2023-04-11T23:50:17.919Z,7.13
2023-04-11T23:52:46.515Z,8.13
2023-04-11T23:55:16.269Z,6.63
2023-04-11T23:57:44.629Z,8.43
